sensor_id;sensor_type;location;lat;lon;timestamp;P1;durP1;ratioP1;P2;durP2;ratioP2
25079;SDS011;13071;48.868;9.996;2024-03-02T00:01:15;24.08;;;7.95;;
25079;SDS011;13071;48.868;9.996;2024-03-02T00:03:42;21.17;;;8.63;;
25079;SDS011;13071;48.868;9.996;2024-03-02T00:06:08;25.55;;;8.55;;
25079;SDS011;13071;48.868;9.996;2024-03-02T00:08:35;26.00;;;8.68;;
25079;SDS011;13071;48.868;9.996;2024-03-02T00:11:02;23.90;;;8.43;;
25079;SDS011;13071;48.868;9.996;2024-03-02T00:13:30;20.20;;;7.93;;
25079;SDS011;13071;48.868;9.996;2024-03-02T00:15:59;22.58;;;8.60;;
25079;SDS011;13071;48.868;9.996;2024-03-02T00:18:26;21.45;;;7.10;;
25079;SDS011;13071;48.868;9.996;2024-03-02T00:20:53;22.95;;;8.27;;
25079;SDS011;13071;48.868;9.996;2024-03-02T00:23:19;26.60;;;9.48;;
25079;SDS011;13071;48.868;9.996;2024-03-02T00:25:47;22.05;;;8.00;;
25079;SDS011;13071;48.868;9.996;2024-03-02T00:28:17;26.95;;;8.85;;
25079;SDS011;13071;48.868;9.996;2024-03-02T00:30:50;20.05;;;7.75;;
25079;SDS011;13071;48.868;9.996;2024-03-02T00:33:17;25.83;;;8.60;;
25079;SDS011;13071;48.868;9.996;2024-03-02T00:35:43;23.30;;;8.77;;
25079;SDS011;13071;48.868;9.996;2024-03-02T00:38:10;21.23;;;8.52;;
25079;SDS011;13071;48.868;9.996;2024-03-02T00:40:36;28.50;;;9.45;;
25079;SDS011;13071;48.868;9.996;2024-03-02T00:43:03;25.75;;;9.02;;
25079;SDS011;13071;48.868;9.996;2024-03-02T00:45:29;26.42;;;9.15;;
25079;SDS011;13071;48.868;9.996;2024-03-02T00:47:57;21.33;;;8.85;;
25079;SDS011;13071;48.868;9.996;2024-03-02T00:50:23;22.30;;;9.10;;
25079;SDS011;13071;48.868;9.996;2024-03-02T00:52:50;27.27;;;8.30;;
25079;SDS011;13071;48.868;9.996;2024-03-02T00:55:16;24.33;;;9.70;;
25079;SDS011;13071;48.868;9.996;2024-03-02T00:57:43;27.40;;;9.77;;
25079;SDS011;13071;48.868;9.996;2024-03-02T01:00:10;25.05;;;9.85;;
25079;SDS011;13071;48.868;9.996;2024-03-02T01:02:40;26.00;;;9.18;;
25079;SDS011;13071;48.868;9.996;2024-03-02T01:05:08;24.90;;;8.60;;
25079;SDS011;13071;48.868;9.996;2024-03-02T01:07:35;28.08;;;9.77;;
25079;SDS011;13071;48.868;9.996;2024-03-02T01:10:04;22.05;;;8.30;;
25079;SDS011;13071;48.868;9.996;2024-03-02T01:12:30;26.52;;;8.80;;
25079;SDS011;13071;48.868;9.996;2024-03-02T01:14:57;21.35;;;8.23;;
25079;SDS011;13071;48.868;9.996;2024-03-02T01:17:23;28.08;;;9.20;;
25079;SDS011;13071;48.868;9.996;2024-03-02T01:19:50;27.95;;;9.68;;
25079;SDS011;13071;48.868;9.996;2024-03-02T01:22:17;20.10;;;8.15;;
25079;SDS011;13071;48.868;9.996;2024-03-02T01:24:50;23.38;;;8.10;;
25079;SDS011;13071;48.868;9.996;2024-03-02T01:27:16;22.63;;;7.93;;
25079;SDS011;13071;48.868;9.996;2024-03-02T01:29:42;23.55;;;9.00;;
25079;SDS011;13071;48.868;9.996;2024-03-02T01:32:09;24.13;;;9.05;;
25079;SDS011;13071;48.868;9.996;2024-03-02T01:34:35;18.90;;;8.20;;
25079;SDS011;13071;48.868;9.996;2024-03-02T01:37:01;22.95;;;8.35;;
25079;SDS011;13071;48.868;9.996;2024-03-02T01:39:29;24.17;;;8.55;;
25079;SDS011;13071;48.868;9.996;2024-03-02T01:41:56;23.55;;;8.65;;
25079;SDS011;13071;48.868;9.996;2024-03-02T01:44:22;24.20;;;9.23;;
25079;SDS011;13071;48.868;9.996;2024-03-02T01:46:49;23.23;;;8.63;;
25079;SDS011;13071;48.868;9.996;2024-03-02T01:49:15;22.40;;;8.00;;
25079;SDS011;13071;48.868;9.996;2024-03-02T01:51:42;23.60;;;8.57;;
25079;SDS011;13071;48.868;9.996;2024-03-02T01:54:08;29.98;;;9.90;;
25079;SDS011;13071;48.868;9.996;2024-03-02T01:56:36;26.30;;;9.27;;
25079;SDS011;13071;48.868;9.996;2024-03-02T01:59:02;25.85;;;9.10;;
25079;SDS011;13071;48.868;9.996;2024-03-02T02:01:29;26.25;;;9.48;;
25079;SDS011;13071;48.868;9.996;2024-03-02T02:03:56;23.02;;;9.40;;
25079;SDS011;13071;48.868;9.996;2024-03-02T02:06:22;25.65;;;9.20;;
25079;SDS011;13071;48.868;9.996;2024-03-02T02:08:49;31.25;;;10.13;;
25079;SDS011;13071;48.868;9.996;2024-03-02T02:11:15;31.05;;;10.13;;
25079;SDS011;13071;48.868;9.996;2024-03-02T02:13:43;30.73;;;10.25;;
25079;SDS011;13071;48.868;9.996;2024-03-02T02:16:09;27.73;;;9.27;;
25079;SDS011;13071;48.868;9.996;2024-03-02T02:18:43;26.02;;;9.15;;
25079;SDS011;13071;48.868;9.996;2024-03-02T02:21:09;28.33;;;8.93;;
25079;SDS011;13071;48.868;9.996;2024-03-02T02:23:37;28.40;;;9.27;;
25079;SDS011;13071;48.868;9.996;2024-03-02T02:26:03;29.35;;;9.63;;
25079;SDS011;13071;48.868;9.996;2024-03-02T02:28:30;27.30;;;9.77;;
25079;SDS011;13071;48.868;9.996;2024-03-02T02:30:56;26.98;;;9.20;;
25079;SDS011;13071;48.868;9.996;2024-03-02T02:33:25;26.85;;;8.20;;
25079;SDS011;13071;48.868;9.996;2024-03-02T02:35:51;30.55;;;9.85;;
25079;SDS011;13071;48.868;9.996;2024-03-02T02:38:17;31.65;;;9.40;;
25079;SDS011;13071;48.868;9.996;2024-03-02T02:40:46;27.52;;;10.02;;
25079;SDS011;13071;48.868;9.996;2024-03-02T02:43:13;23.58;;;9.45;;
25079;SDS011;13071;48.868;9.996;2024-03-02T02:45:38;27.08;;;9.23;;
25079;SDS011;13071;48.868;9.996;2024-03-02T02:48:05;28.30;;;9.65;;
25079;SDS011;13071;48.868;9.996;2024-03-02T02:50:31;22.45;;;8.27;;
25079;SDS011;13071;48.868;9.996;2024-03-02T02:52:58;21.95;;;9.05;;
25079;SDS011;13071;48.868;9.996;2024-03-02T02:55:24;23.85;;;8.75;;
25079;SDS011;13071;48.868;9.996;2024-03-02T02:57:52;29.85;;;10.02;;
25079;SDS011;13071;48.868;9.996;2024-03-02T03:00:18;28.23;;;9.23;;
25079;SDS011;13071;48.868;9.996;2024-03-02T03:02:45;23.85;;;9.02;;
25079;SDS011;13071;48.868;9.996;2024-03-02T03:05:13;27.33;;;9.93;;
25079;SDS011;13071;48.868;9.996;2024-03-02T03:07:39;28.55;;;9.80;;
25079;SDS011;13071;48.868;9.996;2024-03-02T03:10:06;36.53;;;9.90;;
25079;SDS011;13071;48.868;9.996;2024-03-02T03:12:33;32.92;;;10.38;;
25079;SDS011;13071;48.868;9.996;2024-03-02T03:15:01;31.85;;;9.68;;
25079;SDS011;13071;48.868;9.996;2024-03-02T03:17:28;26.13;;;9.00;;
25079;SDS011;13071;48.868;9.996;2024-03-02T03:19:54;29.80;;;9.88;;
25079;SDS011;13071;48.868;9.996;2024-03-02T03:22:21;24.65;;;9.65;;
25079;SDS011;13071;48.868;9.996;2024-03-02T03:24:47;26.73;;;8.48;;
25079;SDS011;13071;48.868;9.996;2024-03-02T03:27:13;26.90;;;9.95;;
25079;SDS011;13071;48.868;9.996;2024-03-02T03:29:40;21.77;;;8.25;;
25079;SDS011;13071;48.868;9.996;2024-03-02T03:32:08;25.15;;;8.48;;
25079;SDS011;13071;48.868;9.996;2024-03-02T03:34:34;29.00;;;8.85;;
25079;SDS011;13071;48.868;9.996;2024-03-02T03:37:01;28.20;;;9.25;;
25079;SDS011;13071;48.868;9.996;2024-03-02T03:39:27;28.58;;;8.27;;
25079;SDS011;13071;48.868;9.996;2024-03-02T03:41:54;28.23;;;9.00;;
25079;SDS011;13071;48.868;9.996;2024-03-02T03:44:20;27.70;;;8.85;;
25079;SDS011;13071;48.868;9.996;2024-03-02T03:46:47;27.00;;;9.18;;
25079;SDS011;13071;48.868;9.996;2024-03-02T03:49:14;31.55;;;10.82;;
25079;SDS011;13071;48.868;9.996;2024-03-02T03:51:41;37.25;;;9.15;;
25079;SDS011;13071;48.868;9.996;2024-03-02T03:54:07;27.75;;;9.52;;
25079;SDS011;13071;48.868;9.996;2024-03-02T03:56:36;25.73;;;8.60;;
25079;SDS011;13071;48.868;9.996;2024-03-02T03:59:02;35.42;;;9.55;;
25079;SDS011;13071;48.868;9.996;2024-03-02T04:01:29;28.10;;;9.77;;
25079;SDS011;13071;48.868;9.996;2024-03-02T04:03:56;30.40;;;9.10;;
25079;SDS011;13071;48.868;9.996;2024-03-02T04:06:24;32.47;;;9.43;;
25079;SDS011;13071;48.868;9.996;2024-03-02T04:08:50;26.40;;;8.98;;
25079;SDS011;13071;48.868;9.996;2024-03-02T04:11:17;23.42;;;8.23;;
25079;SDS011;13071;48.868;9.996;2024-03-02T04:13:43;26.27;;;9.45;;
25079;SDS011;13071;48.868;9.996;2024-03-02T04:16:09;24.45;;;8.23;;
25079;SDS011;13071;48.868;9.996;2024-03-02T04:18:37;25.77;;;7.60;;
25079;SDS011;13071;48.868;9.996;2024-03-02T04:21:04;28.70;;;8.07;;
25079;SDS011;13071;48.868;9.996;2024-03-02T04:23:32;21.23;;;7.57;;
25079;SDS011;13071;48.868;9.996;2024-03-02T04:25:58;30.05;;;8.80;;
25079;SDS011;13071;48.868;9.996;2024-03-02T04:28:25;19.63;;;7.88;;
25079;SDS011;13071;48.868;9.996;2024-03-02T04:30:51;36.28;;;8.02;;
25079;SDS011;13071;48.868;9.996;2024-03-02T04:33:17;24.63;;;8.75;;
25079;SDS011;13071;48.868;9.996;2024-03-02T04:35:44;24.65;;;7.88;;
25079;SDS011;13071;48.868;9.996;2024-03-02T04:38:11;24.67;;;7.97;;
25079;SDS011;13071;48.868;9.996;2024-03-02T04:40:39;27.35;;;8.48;;
25079;SDS011;13071;48.868;9.996;2024-03-02T04:43:05;22.63;;;7.85;;
25079;SDS011;13071;48.868;9.996;2024-03-02T04:45:34;22.60;;;6.93;;
25079;SDS011;13071;48.868;9.996;2024-03-02T04:48:00;23.48;;;7.57;;
25079;SDS011;13071;48.868;9.996;2024-03-02T04:50:26;25.45;;;7.65;;
25079;SDS011;13071;48.868;9.996;2024-03-02T04:52:53;27.40;;;8.68;;
25079;SDS011;13071;48.868;9.996;2024-03-02T04:55:19;21.20;;;7.57;;
25079;SDS011;13071;48.868;9.996;2024-03-02T04:58:11;21.13;;;7.00;;
25079;SDS011;13071;48.868;9.996;2024-03-02T05:00:37;21.98;;;7.28;;
25079;SDS011;13071;48.868;9.996;2024-03-02T05:03:03;22.98;;;7.82;;
25079;SDS011;13071;48.868;9.996;2024-03-02T05:05:30;23.40;;;7.60;;
25079;SDS011;13071;48.868;9.996;2024-03-02T05:07:56;20.70;;;7.47;;
25079;SDS011;13071;48.868;9.996;2024-03-02T05:10:22;20.88;;;7.75;;
25079;SDS011;13071;48.868;9.996;2024-03-02T05:12:49;17.77;;;6.63;;
25079;SDS011;13071;48.868;9.996;2024-03-02T05:15:26;19.02;;;7.32;;
25079;SDS011;13071;48.868;9.996;2024-03-02T05:17:52;22.13;;;8.18;;
25079;SDS011;13071;48.868;9.996;2024-03-02T05:20:19;23.83;;;7.85;;
25079;SDS011;13071;48.868;9.996;2024-03-02T05:22:45;22.98;;;8.80;;
25079;SDS011;13071;48.868;9.996;2024-03-02T05:25:12;19.95;;;8.25;;
25079;SDS011;13071;48.868;9.996;2024-03-02T05:27:38;23.70;;;8.50;;
25079;SDS011;13071;48.868;9.996;2024-03-02T05:30:05;23.05;;;7.97;;
25079;SDS011;13071;48.868;9.996;2024-03-02T05:32:34;23.92;;;8.02;;
25079;SDS011;13071;48.868;9.996;2024-03-02T05:35:00;26.27;;;8.73;;
25079;SDS011;13071;48.868;9.996;2024-03-02T05:37:28;22.20;;;7.85;;
25079;SDS011;13071;48.868;9.996;2024-03-02T05:39:54;20.90;;;7.53;;
25079;SDS011;13071;48.868;9.996;2024-03-02T05:42:20;20.88;;;7.47;;
25079;SDS011;13071;48.868;9.996;2024-03-02T05:44:47;23.63;;;7.25;;
25079;SDS011;13071;48.868;9.996;2024-03-02T05:47:13;26.50;;;9.07;;
25079;SDS011;13071;48.868;9.996;2024-03-02T05:49:41;17.30;;;6.57;;
25079;SDS011;13071;48.868;9.996;2024-03-02T05:52:08;19.30;;;7.28;;
25079;SDS011;13071;48.868;9.996;2024-03-02T05:54:34;22.15;;;6.90;;
25079;SDS011;13071;48.868;9.996;2024-03-02T05:57:00;19.25;;;6.25;;
25079;SDS011;13071;48.868;9.996;2024-03-02T05:59:42;19.02;;;6.18;;
25079;SDS011;13071;48.868;9.996;2024-03-02T06:02:08;16.40;;;7.28;;
25079;SDS011;13071;48.868;9.996;2024-03-02T06:04:35;23.10;;;6.85;;
25079;SDS011;13071;48.868;9.996;2024-03-02T06:07:02;22.40;;;6.55;;
25079;SDS011;13071;48.868;9.996;2024-03-02T06:09:29;17.73;;;6.68;;
25079;SDS011;13071;48.868;9.996;2024-03-02T06:11:55;21.80;;;7.15;;
25079;SDS011;13071;48.868;9.996;2024-03-02T06:14:21;19.02;;;7.53;;
25079;SDS011;13071;48.868;9.996;2024-03-02T06:16:48;18.55;;;6.72;;
25079;SDS011;13071;48.868;9.996;2024-03-02T06:19:14;18.50;;;6.50;;
25079;SDS011;13071;48.868;9.996;2024-03-02T06:21:40;18.88;;;6.80;;
25079;SDS011;13071;48.868;9.996;2024-03-02T06:24:08;17.98;;;6.10;;
25079;SDS011;13071;48.868;9.996;2024-03-02T06:26:35;18.40;;;7.03;;
25079;SDS011;13071;48.868;9.996;2024-03-02T06:29:01;24.00;;;8.20;;
25079;SDS011;13071;48.868;9.996;2024-03-02T06:31:28;15.65;;;6.78;;
25079;SDS011;13071;48.868;9.996;2024-03-02T06:33:55;16.63;;;6.30;;
25079;SDS011;13071;48.868;9.996;2024-03-02T06:36:21;15.50;;;6.35;;
25079;SDS011;13071;48.868;9.996;2024-03-02T06:38:48;20.23;;;6.38;;
25079;SDS011;13071;48.868;9.996;2024-03-02T06:41:16;18.25;;;6.82;;
25079;SDS011;13071;48.868;9.996;2024-03-02T06:43:42;17.52;;;6.65;;
25079;SDS011;13071;48.868;9.996;2024-03-02T06:46:08;17.42;;;6.78;;
25079;SDS011;13071;48.868;9.996;2024-03-02T06:48:35;18.50;;;6.93;;
25079;SDS011;13071;48.868;9.996;2024-03-02T06:51:01;21.20;;;7.32;;
25079;SDS011;13071;48.868;9.996;2024-03-02T06:53:28;18.23;;;6.38;;
25079;SDS011;13071;48.868;9.996;2024-03-02T06:55:55;21.67;;;6.45;;
25079;SDS011;13071;48.868;9.996;2024-03-02T06:58:22;18.85;;;6.78;;
25079;SDS011;13071;48.868;9.996;2024-03-02T07:00:49;18.00;;;6.43;;
25079;SDS011;13071;48.868;9.996;2024-03-02T07:03:16;18.15;;;6.28;;
25079;SDS011;13071;48.868;9.996;2024-03-02T07:05:42;18.17;;;6.20;;
25079;SDS011;13071;48.868;9.996;2024-03-02T07:08:09;16.98;;;6.60;;
25079;SDS011;13071;48.868;9.996;2024-03-02T07:10:35;19.67;;;6.60;;
25079;SDS011;13071;48.868;9.996;2024-03-02T07:13:01;17.67;;;6.38;;
25079;SDS011;13071;48.868;9.996;2024-03-02T07:15:29;19.40;;;6.68;;
25079;SDS011;13071;48.868;9.996;2024-03-02T07:18:12;20.75;;;6.28;;
25079;SDS011;13071;48.868;9.996;2024-03-02T07:20:38;16.77;;;6.38;;
25079;SDS011;13071;48.868;9.996;2024-03-02T07:23:05;19.25;;;7.03;;
25079;SDS011;13071;48.868;9.996;2024-03-02T07:25:32;17.30;;;6.93;;
25079;SDS011;13071;48.868;9.996;2024-03-02T07:27:58;18.35;;;7.18;;
25079;SDS011;13071;48.868;9.996;2024-03-02T07:30:24;13.35;;;5.70;;
25079;SDS011;13071;48.868;9.996;2024-03-02T07:32:52;15.18;;;6.60;;
25079;SDS011;13071;48.868;9.996;2024-03-02T07:35:18;15.13;;;6.40;;
25079;SDS011;13071;48.868;9.996;2024-03-02T07:37:45;16.63;;;6.47;;
25079;SDS011;13071;48.868;9.996;2024-03-02T07:40:11;16.02;;;6.72;;
25079;SDS011;13071;48.868;9.996;2024-03-02T07:42:38;15.88;;;6.80;;
25079;SDS011;13071;48.868;9.996;2024-03-02T07:45:05;14.77;;;6.28;;
25079;SDS011;13071;48.868;9.996;2024-03-02T07:47:32;13.05;;;5.85;;
25079;SDS011;13071;48.868;9.996;2024-03-02T07:50:00;17.38;;;7.22;;
25079;SDS011;13071;48.868;9.996;2024-03-02T07:52:26;16.42;;;5.88;;
25079;SDS011;13071;48.868;9.996;2024-03-02T07:54:52;12.65;;;5.90;;
25079;SDS011;13071;48.868;9.996;2024-03-02T07:57:19;14.90;;;6.10;;
25079;SDS011;13071;48.868;9.996;2024-03-02T07:59:45;12.55;;;5.80;;
25079;SDS011;13071;48.868;9.996;2024-03-02T08:02:12;14.35;;;5.80;;
25079;SDS011;13071;48.868;9.996;2024-03-02T08:04:38;15.73;;;6.65;;
25079;SDS011;13071;48.868;9.996;2024-03-02T08:07:06;14.55;;;6.30;;
25079;SDS011;13071;48.868;9.996;2024-03-02T08:09:34;15.43;;;6.95;;
25079;SDS011;13071;48.868;9.996;2024-03-02T08:12:00;15.30;;;6.82;;
25079;SDS011;13071;48.868;9.996;2024-03-02T08:14:29;14.40;;;6.63;;
25079;SDS011;13071;48.868;9.996;2024-03-02T08:16:56;14.32;;;6.07;;
25079;SDS011;13071;48.868;9.996;2024-03-02T08:19:22;13.60;;;6.38;;
25079;SDS011;13071;48.868;9.996;2024-03-02T08:21:49;14.77;;;5.63;;
25079;SDS011;13071;48.868;9.996;2024-03-02T08:24:16;11.18;;;5.82;;
25079;SDS011;13071;48.868;9.996;2024-03-02T08:26:43;12.93;;;5.70;;
25079;SDS011;13071;48.868;9.996;2024-03-02T08:29:09;13.75;;;5.88;;
25079;SDS011;13071;48.868;9.996;2024-03-02T08:31:36;10.75;;;5.07;;
25079;SDS011;13071;48.868;9.996;2024-03-02T08:34:03;12.00;;;5.47;;
25079;SDS011;13071;48.868;9.996;2024-03-02T08:36:29;8.15;;;4.55;;
25079;SDS011;13071;48.868;9.996;2024-03-02T08:38:55;11.20;;;5.32;;
25079;SDS011;13071;48.868;9.996;2024-03-02T08:41:23;11.23;;;4.85;;
25079;SDS011;13071;48.868;9.996;2024-03-02T08:43:49;12.70;;;5.28;;
25079;SDS011;13071;48.868;9.996;2024-03-02T08:46:16;8.57;;;5.07;;
25079;SDS011;13071;48.868;9.996;2024-03-02T08:48:42;11.43;;;4.57;;
25079;SDS011;13071;48.868;9.996;2024-03-02T08:51:08;12.82;;;6.22;;
25079;SDS011;13071;48.868;9.996;2024-03-02T08:53:35;9.07;;;5.00;;
25079;SDS011;13071;48.868;9.996;2024-03-02T08:56:02;7.82;;;4.45;;
25079;SDS011;13071;48.868;9.996;2024-03-02T08:58:31;8.57;;;4.35;;
25079;SDS011;13071;48.868;9.996;2024-03-02T09:00:58;7.47;;;3.83;;
25079;SDS011;13071;48.868;9.996;2024-03-02T09:03:24;8.52;;;4.50;;
25079;SDS011;13071;48.868;9.996;2024-03-02T09:05:51;7.97;;;4.20;;
25079;SDS011;13071;48.868;9.996;2024-03-02T09:08:17;8.73;;;4.10;;
25079;SDS011;13071;48.868;9.996;2024-03-02T09:10:43;7.18;;;3.90;;
25079;SDS011;13071;48.868;9.996;2024-03-02T09:13:10;8.55;;;3.58;;
25079;SDS011;13071;48.868;9.996;2024-03-02T09:15:38;6.25;;;3.45;;
25079;SDS011;13071;48.868;9.996;2024-03-02T09:18:04;5.85;;;3.22;;
25079;SDS011;13071;48.868;9.996;2024-03-02T09:20:31;8.48;;;3.45;;
25079;SDS011;13071;48.868;9.996;2024-03-02T09:22:58;5.38;;;3.78;;
25079;SDS011;13071;48.868;9.996;2024-03-02T09:25:24;4.40;;;2.83;;
25079;SDS011;13071;48.868;9.996;2024-03-02T09:27:51;7.30;;;3.67;;
25079;SDS011;13071;48.868;9.996;2024-03-02T09:30:17;4.75;;;3.13;;
25079;SDS011;13071;48.868;9.996;2024-03-02T09:32:45;7.43;;;3.28;;
25079;SDS011;13071;48.868;9.996;2024-03-02T09:35:12;5.50;;;2.28;;
25079;SDS011;13071;48.868;9.996;2024-03-02T09:37:38;4.45;;;2.28;;
25079;SDS011;13071;48.868;9.996;2024-03-02T09:40:05;4.72;;;2.85;;
25079;SDS011;13071;48.868;9.996;2024-03-02T09:42:32;4.25;;;2.72;;
25079;SDS011;13071;48.868;9.996;2024-03-02T09:44:58;3.47;;;2.20;;
25079;SDS011;13071;48.868;9.996;2024-03-02T09:47:24;3.22;;;2.30;;
25079;SDS011;13071;48.868;9.996;2024-03-02T09:49:52;4.63;;;2.65;;
25079;SDS011;13071;48.868;9.996;2024-03-02T09:52:20;3.60;;;2.20;;
25079;SDS011;13071;48.868;9.996;2024-03-02T09:54:47;5.65;;;3.30;;
25079;SDS011;13071;48.868;9.996;2024-03-02T09:57:13;8.13;;;3.08;;
25079;SDS011;13071;48.868;9.996;2024-03-02T09:59:40;9.05;;;3.40;;
25079;SDS011;13071;48.868;9.996;2024-03-02T10:02:06;5.50;;;2.15;;
25079;SDS011;13071;48.868;9.996;2024-03-02T10:04:33;4.25;;;2.60;;
25079;SDS011;13071;48.868;9.996;2024-03-02T10:07:11;3.70;;;2.33;;
25079;SDS011;13071;48.868;9.996;2024-03-02T10:09:38;4.13;;;2.60;;
25079;SDS011;13071;48.868;9.996;2024-03-02T10:12:05;4.10;;;2.75;;
25079;SDS011;13071;48.868;9.996;2024-03-02T10:14:32;4.43;;;2.50;;
25079;SDS011;13071;48.868;9.996;2024-03-02T10:17:01;3.70;;;2.40;;
25079;SDS011;13071;48.868;9.996;2024-03-02T10:19:28;3.72;;;2.55;;
25079;SDS011;13071;48.868;9.996;2024-03-02T10:21:57;3.28;;;2.22;;
25079;SDS011;13071;48.868;9.996;2024-03-02T10:24:26;3.88;;;2.70;;
25079;SDS011;13071;48.868;9.996;2024-03-02T10:26:52;3.67;;;2.15;;
25079;SDS011;13071;48.868;9.996;2024-03-02T10:29:19;3.00;;;2.13;;
25079;SDS011;13071;48.868;9.996;2024-03-02T10:31:46;3.92;;;2.38;;
25079;SDS011;13071;48.868;9.996;2024-03-02T10:34:12;4.70;;;2.60;;
25079;SDS011;13071;48.868;9.996;2024-03-02T10:36:40;8.15;;;2.72;;
25079;SDS011;13071;48.868;9.996;2024-03-02T10:39:07;3.42;;;2.50;;
25079;SDS011;13071;48.868;9.996;2024-03-02T10:41:35;4.82;;;2.47;;
25079;SDS011;13071;48.868;9.996;2024-03-02T10:44:02;4.05;;;2.45;;
25079;SDS011;13071;48.868;9.996;2024-03-02T10:46:29;3.90;;;2.47;;
25079;SDS011;13071;48.868;9.996;2024-03-02T10:48:54;2.75;;;2.30;;
25079;SDS011;13071;48.868;9.996;2024-03-02T10:51:20;3.97;;;2.03;;
25079;SDS011;13071;48.868;9.996;2024-03-02T10:53:47;2.58;;;1.60;;
25079;SDS011;13071;48.868;9.996;2024-03-02T10:56:14;3.25;;;2.25;;
25079;SDS011;13071;48.868;9.996;2024-03-02T10:58:44;2.67;;;1.48;;
25079;SDS011;13071;48.868;9.996;2024-03-02T11:01:11;3.05;;;1.80;;
25079;SDS011;13071;48.868;9.996;2024-03-02T11:03:39;2.20;;;1.65;;
25079;SDS011;13071;48.868;9.996;2024-03-02T11:06:07;3.45;;;1.67;;
25079;SDS011;13071;48.868;9.996;2024-03-02T11:08:34;2.15;;;1.63;;
25079;SDS011;13071;48.868;9.996;2024-03-02T11:11:02;2.30;;;1.90;;
25079;SDS011;13071;48.868;9.996;2024-03-02T11:13:33;1.90;;;1.55;;
25079;SDS011;13071;48.868;9.996;2024-03-02T11:16:03;1.50;;;1.38;;
25079;SDS011;13071;48.868;9.996;2024-03-02T11:18:31;1.50;;;1.40;;
25079;SDS011;13071;48.868;9.996;2024-03-02T11:20:57;4.22;;;1.48;;
25079;SDS011;13071;48.868;9.996;2024-03-02T11:23:31;2.83;;;1.58;;
25079;SDS011;13071;48.868;9.996;2024-03-02T11:26:02;1.75;;;1.40;;
25079;SDS011;13071;48.868;9.996;2024-03-02T11:28:43;1.35;;;1.23;;
25079;SDS011;13071;48.868;9.996;2024-03-02T11:31:10;2.85;;;1.13;;
25079;SDS011;13071;48.868;9.996;2024-03-02T11:33:37;1.17;;;1.08;;
25079;SDS011;13071;48.868;9.996;2024-03-02T11:36:04;1.63;;;1.25;;
25079;SDS011;13071;48.868;9.996;2024-03-02T11:38:32;1.58;;;1.23;;
25079;SDS011;13071;48.868;9.996;2024-03-02T11:40:59;1.98;;;1.25;;
25079;SDS011;13071;48.868;9.996;2024-03-02T11:43:27;3.65;;;2.38;;
25079;SDS011;13071;48.868;9.996;2024-03-02T11:45:56;2.78;;;2.58;;
25079;SDS011;13071;48.868;9.996;2024-03-02T11:48:24;2.08;;;1.52;;
25079;SDS011;13071;48.868;9.996;2024-03-02T11:50:51;1.67;;;1.58;;
25079;SDS011;13071;48.868;9.996;2024-03-02T11:53:18;2.28;;;1.80;;
25079;SDS011;13071;48.868;9.996;2024-03-02T11:55:45;2.08;;;1.88;;
25079;SDS011;13071;48.868;9.996;2024-03-02T11:58:11;2.25;;;1.88;;
25079;SDS011;13071;48.868;9.996;2024-03-02T12:03:13;2.50;;;2.00;;
25079;SDS011;13071;48.868;9.996;2024-03-02T12:05:41;2.83;;;1.83;;
25079;SDS011;13071;48.868;9.996;2024-03-02T12:08:08;2.20;;;1.60;;
25079;SDS011;13071;48.868;9.996;2024-03-02T12:10:35;1.40;;;1.30;;
25079;SDS011;13071;48.868;9.996;2024-03-02T12:13:02;1.48;;;1.38;;
25079;SDS011;13071;48.868;9.996;2024-03-02T12:15:29;1.50;;;0.98;;
25079;SDS011;13071;48.868;9.996;2024-03-02T12:17:56;1.30;;;1.20;;
25079;SDS011;13071;48.868;9.996;2024-03-02T12:20:23;1.05;;;0.88;;
25079;SDS011;13071;48.868;9.996;2024-03-02T12:22:51;1.00;;;1.00;;
25079;SDS011;13071;48.868;9.996;2024-03-02T12:25:18;1.00;;;1.00;;
25079;SDS011;13071;48.868;9.996;2024-03-02T12:27:45;1.35;;;1.10;;
25079;SDS011;13071;48.868;9.996;2024-03-02T12:30:12;4.80;;;1.20;;
25079;SDS011;13071;48.868;9.996;2024-03-02T12:32:39;3.40;;;1.27;;
25079;SDS011;13071;48.868;9.996;2024-03-02T12:35:05;1.27;;;0.98;;
25079;SDS011;13071;48.868;9.996;2024-03-02T12:37:32;0.77;;;0.77;;
25079;SDS011;13071;48.868;9.996;2024-03-02T12:40:00;1.08;;;1.08;;
25079;SDS011;13071;48.868;9.996;2024-03-02T12:42:26;1.63;;;1.10;;
25079;SDS011;13071;48.868;9.996;2024-03-02T12:44:52;3.83;;;0.90;;
25079;SDS011;13071;48.868;9.996;2024-03-02T12:47:20;1.23;;;0.85;;
25079;SDS011;13071;48.868;9.996;2024-03-02T12:49:46;1.13;;;0.90;;
25079;SDS011;13071;48.868;9.996;2024-03-02T12:52:13;1.27;;;1.10;;
25079;SDS011;13071;48.868;9.996;2024-03-02T12:54:39;0.90;;;0.90;;
25079;SDS011;13071;48.868;9.996;2024-03-02T12:57:07;8.30;;;0.80;;
25079;SDS011;13071;48.868;9.996;2024-03-02T12:59:33;2.08;;;1.05;;
25079;SDS011;13071;48.868;9.996;2024-03-02T13:01:59;1.50;;;0.85;;
25079;SDS011;13071;48.868;9.996;2024-03-02T13:04:27;1.08;;;1.00;;
25079;SDS011;13071;48.868;9.996;2024-03-02T13:06:54;1.13;;;1.02;;
25079;SDS011;13071;48.868;9.996;2024-03-02T13:09:22;1.58;;;1.10;;
25079;SDS011;13071;48.868;9.996;2024-03-02T13:11:49;1.33;;;1.20;;
25079;SDS011;13071;48.868;9.996;2024-03-02T13:14:17;1.42;;;0.90;;
25079;SDS011;13071;48.868;9.996;2024-03-02T13:16:44;2.45;;;1.05;;
25079;SDS011;13071;48.868;9.996;2024-03-02T13:19:12;1.15;;;0.90;;
25079;SDS011;13071;48.868;9.996;2024-03-02T13:21:38;1.33;;;1.23;;
25079;SDS011;13071;48.868;9.996;2024-03-02T13:24:05;0.80;;;0.80;;
25079;SDS011;13071;48.868;9.996;2024-03-02T13:26:31;0.70;;;0.70;;
25079;SDS011;13071;48.868;9.996;2024-03-02T13:28:58;0.85;;;0.80;;
25079;SDS011;13071;48.868;9.996;2024-03-02T13:31:26;0.80;;;0.80;;
25079;SDS011;13071;48.868;9.996;2024-03-02T13:33:52;0.80;;;0.80;;
25079;SDS011;13071;48.868;9.996;2024-03-02T13:36:18;0.90;;;0.90;;
25079;SDS011;13071;48.868;9.996;2024-03-02T13:38:45;0.90;;;0.90;;
25079;SDS011;13071;48.868;9.996;2024-03-02T13:41:11;1.63;;;1.38;;
25079;SDS011;13071;48.868;9.996;2024-03-02T13:43:37;0.85;;;0.85;;
25079;SDS011;13071;48.868;9.996;2024-03-02T13:46:04;1.52;;;1.42;;
25079;SDS011;13071;48.868;9.996;2024-03-02T13:48:32;1.77;;;1.60;;
25079;SDS011;13071;48.868;9.996;2024-03-02T13:50:59;2.67;;;1.92;;
25079;SDS011;13071;48.868;9.996;2024-03-02T13:53:25;1.70;;;1.60;;
25079;SDS011;13071;48.868;9.996;2024-03-02T13:55:52;1.52;;;1.38;;
25079;SDS011;13071;48.868;9.996;2024-03-02T13:58:18;4.45;;;1.45;;
25079;SDS011;13071;48.868;9.996;2024-03-02T14:00:45;2.47;;;1.92;;
25079;SDS011;13071;48.868;9.996;2024-03-02T14:03:12;2.35;;;2.00;;
25079;SDS011;13071;48.868;9.996;2024-03-02T14:05:40;3.00;;;2.10;;
25079;SDS011;13071;48.868;9.996;2024-03-02T14:08:06;3.67;;;2.10;;
25079;SDS011;13071;48.868;9.996;2024-03-02T14:10:33;2.72;;;2.00;;
25079;SDS011;13071;48.868;9.996;2024-03-02T14:13:00;3.67;;;2.60;;
25079;SDS011;13071;48.868;9.996;2024-03-02T14:15:27;3.60;;;2.47;;
25079;SDS011;13071;48.868;9.996;2024-03-02T14:17:55;6.32;;;2.72;;
25079;SDS011;13071;48.868;9.996;2024-03-02T14:20:21;3.00;;;2.63;;
25079;SDS011;13071;48.868;9.996;2024-03-02T14:22:50;3.65;;;2.90;;
25079;SDS011;13071;48.868;9.996;2024-03-02T14:25:16;4.65;;;2.85;;
25079;SDS011;13071;48.868;9.996;2024-03-02T14:27:44;5.55;;;3.90;;
25079;SDS011;13071;48.868;9.996;2024-03-02T14:30:11;7.05;;;4.03;;
25079;SDS011;13071;48.868;9.996;2024-03-02T14:32:38;5.55;;;3.80;;
25079;SDS011;13071;48.868;9.996;2024-03-02T14:35:05;5.68;;;3.85;;
25079;SDS011;13071;48.868;9.996;2024-03-02T14:37:31;7.05;;;3.80;;
25079;SDS011;13071;48.868;9.996;2024-03-02T14:39:59;6.18;;;3.38;;
25079;SDS011;13071;48.868;9.996;2024-03-02T14:42:26;4.97;;;3.30;;